sensor_id;sensor_type;location;lat;lon;timestamp;temperature;humidity
19920;DHT22;10122;50.074;19.920;2022-08-19T00:00:19;23.20;99.90
19920;DHT22;10122;50.074;19.920;2022-08-19T00:02:46;23.20;99.90
19920;DHT22;10122;50.074;19.920;2022-08-19T00:05:13;23.30;99.90
19920;DHT22;10122;50.074;19.920;2022-08-19T00:07:39;23.20;99.90
19920;DHT22;10122;50.074;19.920;2022-08-19T00:10:07;23.20;99.90
19920;DHT22;10122;50.074;19.920;2022-08-19T00:12:34;23.20;99.90
19920;DHT22;10122;50.074;19.920;2022-08-19T00:15:00;23.20;99.90
19920;DHT22;10122;50.074;19.920;2022-08-19T00:17:26;23.20;99.90
19920;DHT22;10122;50.074;19.920;2022-08-19T00:19:52;23.20;99.90
19920;DHT22;10122;50.074;19.920;2022-08-19T00:22:17;23.20;99.90
19920;DHT22;10122;50.074;19.920;2022-08-19T00:24:44;23.10;99.90
19920;DHT22;10122;50.074;19.920;2022-08-19T00:27:11;23.10;99.90
19920;DHT22;10122;50.074;19.920;2022-08-19T00:29:37;23.20;99.90
19920;DHT22;10122;50.074;19.920;2022-08-19T00:32:03;23.30;99.90
19920;DHT22;10122;50.074;19.920;2022-08-19T00:34:29;23.30;99.90
19920;DHT22;10122;50.074;19.920;2022-08-19T00:36:56;23.20;99.90
19920;DHT22;10122;50.074;19.920;2022-08-19T00:39:21;23.10;99.90
19920;DHT22;10122;50.074;19.920;2022-08-19T00:41:48;23.00;99.90
19920;DHT22;10122;50.074;19.920;2022-08-19T00:44:18;23.00;99.90
19920;DHT22;10122;50.074;19.920;2022-08-19T00:46:46;23.10;99.90
19920;DHT22;10122;50.074;19.920;2022-08-19T00:49:29;23.10;99.90
19920;DHT22;10122;50.074;19.920;2022-08-19T00:52:18;23.00;99.90
19920;DHT22;10122;50.074;19.920;2022-08-19T00:54:47;23.00;99.90
19920;DHT22;10122;50.074;19.920;2022-08-19T00:57:16;23.00;99.90
19920;DHT22;10122;50.074;19.920;2022-08-19T00:59:45;23.00;99.90
19920;DHT22;10122;50.074;19.920;2022-08-19T01:02:12;23.00;99.90
19920;DHT22;10122;50.074;19.920;2022-08-19T01:04:38;22.90;99.90
19920;DHT22;10122;50.074;19.920;2022-08-19T01:07:04;22.90;99.90
19920;DHT22;10122;50.074;19.920;2022-08-19T01:09:30;23.00;99.90
19920;DHT22;10122;50.074;19.920;2022-08-19T01:11:57;23.00;99.90
19920;DHT22;10122;50.074;19.920;2022-08-19T01:14:24;23.00;99.90
19920;DHT22;10122;50.074;19.920;2022-08-19T01:16:50;23.00;99.90
19920;DHT22;10122;50.074;19.920;2022-08-19T01:19:29;23.00;99.90
19920;DHT22;10122;50.074;19.920;2022-08-19T01:24:45;22.90;99.90
19920;DHT22;10122;50.074;19.920;2022-08-19T01:27:11;22.70;99.90
19920;DHT22;10122;50.074;19.920;2022-08-19T01:29:40;22.60;99.90
19920;DHT22;10122;50.074;19.920;2022-08-19T01:32:09;22.50;99.90
19920;DHT22;10122;50.074;19.920;2022-08-19T01:34:37;22.50;99.90
19920;DHT22;10122;50.074;19.920;2022-08-19T01:37:10;22.50;99.90
19920;DHT22;10122;50.074;19.920;2022-08-19T01:39:38;22.50;99.90
19920;DHT22;10122;50.074;19.920;2022-08-19T01:42:06;22.50;99.90
19920;DHT22;10122;50.074;19.920;2022-08-19T01:44:33;22.40;99.90
19920;DHT22;10122;50.074;19.920;2022-08-19T01:46:59;22.30;99.90
19920;DHT22;10122;50.074;19.920;2022-08-19T01:49:25;22.30;99.90
19920;DHT22;10122;50.074;19.920;2022-08-19T01:51:53;22.30;99.90
19920;DHT22;10122;50.074;19.920;2022-08-19T01:54:20;22.20;99.90
19920;DHT22;10122;50.074;19.920;2022-08-19T01:56:46;22.20;99.90
19920;DHT22;10122;50.074;19.920;2022-08-19T01:59:17;22.20;99.90
19920;DHT22;10122;50.074;19.920;2022-08-19T02:01:43;22.20;99.90
19920;DHT22;10122;50.074;19.920;2022-08-19T02:04:09;22.20;99.90
19920;DHT22;10122;50.074;19.920;2022-08-19T02:06:35;22.20;99.90
19920;DHT22;10122;50.074;19.920;2022-08-19T02:09:03;22.10;99.90
19920;DHT22;10122;50.074;19.920;2022-08-19T02:11:32;22.10;99.90
19920;DHT22;10122;50.074;19.920;2022-08-19T02:14:00;22.20;99.90
19920;DHT22;10122;50.074;19.920;2022-08-19T02:16:27;22.10;99.90
19920;DHT22;10122;50.074;19.920;2022-08-19T02:18:53;22.10;99.90
19920;DHT22;10122;50.074;19.920;2022-08-19T02:21:22;22.20;99.90
19920;DHT22;10122;50.074;19.920;2022-08-19T02:23:48;22.20;99.90
19920;DHT22;10122;50.074;19.920;2022-08-19T02:26:16;22.20;99.90
19920;DHT22;10122;50.074;19.920;2022-08-19T02:28:42;22.20;99.90
19920;DHT22;10122;50.074;19.920;2022-08-19T02:31:12;22.10;99.90
19920;DHT22;10122;50.074;19.920;2022-08-19T02:33:38;22.10;99.90
19920;DHT22;10122;50.074;19.920;2022-08-19T02:36:05;22.10;99.90
19920;DHT22;10122;50.074;19.920;2022-08-19T02:38:31;22.00;99.90
19920;DHT22;10122;50.074;19.920;2022-08-19T02:41:04;22.00;99.90
19920;DHT22;10122;50.074;19.920;2022-08-19T02:43:31;21.80;99.90
19920;DHT22;10122;50.074;19.920;2022-08-19T02:45:57;21.80;99.90
19920;DHT22;10122;50.074;19.920;2022-08-19T02:48:24;21.80;99.90
19920;DHT22;10122;50.074;19.920;2022-08-19T02:50:51;21.90;99.90
19920;DHT22;10122;50.074;19.920;2022-08-19T02:53:26;21.80;99.90
19920;DHT22;10122;50.074;19.920;2022-08-19T02:55:52;21.80;99.90
19920;DHT22;10122;50.074;19.920;2022-08-19T02:58:19;21.80;99.90
19920;DHT22;10122;50.074;19.920;2022-08-19T03:00:48;21.80;99.90
19920;DHT22;10122;50.074;19.920;2022-08-19T03:03:14;21.80;99.90
19920;DHT22;10122;50.074;19.920;2022-08-19T03:05:41;21.80;99.90
19920;DHT22;10122;50.074;19.920;2022-08-19T03:08:07;21.80;99.90
19920;DHT22;10122;50.074;19.920;2022-08-19T03:10:40;21.80;99.90
19920;DHT22;10122;50.074;19.920;2022-08-19T03:13:08;21.80;99.90
19920;DHT22;10122;50.074;19.920;2022-08-19T03:15:34;21.80;99.90
19920;DHT22;10122;50.074;19.920;2022-08-19T03:17:59;21.60;99.90
19920;DHT22;10122;50.074;19.920;2022-08-19T03:20:25;21.60;99.90
19920;DHT22;10122;50.074;19.920;2022-08-19T03:22:51;21.60;99.90
19920;DHT22;10122;50.074;19.920;2022-08-19T03:25:17;21.50;99.90
19920;DHT22;10122;50.074;19.920;2022-08-19T03:27:42;21.50;99.90
19920;DHT22;10122;50.074;19.920;2022-08-19T03:30:10;21.40;99.90
19920;DHT22;10122;50.074;19.920;2022-08-19T03:32:36;21.30;99.90
19920;DHT22;10122;50.074;19.920;2022-08-19T03:35:01;21.30;99.90
19920;DHT22;10122;50.074;19.920;2022-08-19T03:37:27;21.30;99.90
19920;DHT22;10122;50.074;19.920;2022-08-19T03:39:53;21.30;99.90
19920;DHT22;10122;50.074;19.920;2022-08-19T03:42:19;21.30;99.90
19920;DHT22;10122;50.074;19.920;2022-08-19T03:44:45;21.20;99.90
19920;DHT22;10122;50.074;19.920;2022-08-19T03:47:10;21.30;99.90
19920;DHT22;10122;50.074;19.920;2022-08-19T03:49:41;21.30;99.90
19920;DHT22;10122;50.074;19.920;2022-08-19T03:52:07;21.50;99.90
19920;DHT22;10122;50.074;19.920;2022-08-19T03:54:33;21.60;99.90
19920;DHT22;10122;50.074;19.920;2022-08-19T03:56:59;21.70;99.90
19920;DHT22;10122;50.074;19.920;2022-08-19T03:59:28;21.70;99.90
19920;DHT22;10122;50.074;19.920;2022-08-19T04:01:59;21.80;99.90
19920;DHT22;10122;50.074;19.920;2022-08-19T04:04:25;21.90;99.90
19920;DHT22;10122;50.074;19.920;2022-08-19T04:06:51;22.00;99.90
19920;DHT22;10122;50.074;19.920;2022-08-19T04:09:18;22.00;99.90
19920;DHT22;10122;50.074;19.920;2022-08-19T04:11:47;22.00;99.90
19920;DHT22;10122;50.074;19.920;2022-08-19T04:14:17;22.10;99.90
19920;DHT22;10122;50.074;19.920;2022-08-19T04:16:44;22.20;99.90
19920;DHT22;10122;50.074;19.920;2022-08-19T04:19:10;22.30;99.90
19920;DHT22;10122;50.074;19.920;2022-08-19T04:21:36;22.30;99.90
19920;DHT22;10122;50.074;19.920;2022-08-19T04:24:03;22.30;99.90
19920;DHT22;10122;50.074;19.920;2022-08-19T04:26:33;22.20;99.90
19920;DHT22;10122;50.074;19.920;2022-08-19T04:28:59;22.20;99.90
19920;DHT22;10122;50.074;19.920;2022-08-19T04:31:28;22.40;99.90
19920;DHT22;10122;50.074;19.920;2022-08-19T04:33:56;22.40;99.90
19920;DHT22;10122;50.074;19.920;2022-08-19T04:36:25;22.40;99.90
19920;DHT22;10122;50.074;19.920;2022-08-19T04:38:58;22.50;99.90
19920;DHT22;10122;50.074;19.920;2022-08-19T04:41:24;22.40;99.90
19920;DHT22;10122;50.074;19.920;2022-08-19T04:44:09;22.40;99.90
19920;DHT22;10122;50.074;19.920;2022-08-19T04:46:35;22.50;99.90
19920;DHT22;10122;50.074;19.920;2022-08-19T04:49:03;22.50;99.90
19920;DHT22;10122;50.074;19.920;2022-08-19T04:51:30;22.50;99.90
19920;DHT22;10122;50.074;19.920;2022-08-19T04:53:56;22.50;99.90
19920;DHT22;10122;50.074;19.920;2022-08-19T04:56:22;22.60;99.90
19920;DHT22;10122;50.074;19.920;2022-08-19T04:58:48;22.60;99.90
19920;DHT22;10122;50.074;19.920;2022-08-19T05:01:22;22.60;99.90
19920;DHT22;10122;50.074;19.920;2022-08-19T05:03:48;22.70;99.90
19920;DHT22;10122;50.074;19.920;2022-08-19T05:06:17;22.70;99.90
19920;DHT22;10122;50.074;19.920;2022-08-19T05:08:44;22.80;99.90
19920;DHT22;10122;50.074;19.920;2022-08-19T05:13:37;22.90;99.90
19920;DHT22;10122;50.074;19.920;2022-08-19T05:16:03;22.80;99.90
19920;DHT22;10122;50.074;19.920;2022-08-19T05:18:29;22.90;99.90
19920;DHT22;10122;50.074;19.920;2022-08-19T05:21:16;22.90;99.90
19920;DHT22;10122;50.074;19.920;2022-08-19T05:24:00;23.00;99.90
19920;DHT22;10122;50.074;19.920;2022-08-19T05:26:28;23.00;99.90
19920;DHT22;10122;50.074;19.920;2022-08-19T05:28:54;23.00;99.90
19920;DHT22;10122;50.074;19.920;2022-08-19T05:31:20;23.00;99.90
19920;DHT22;10122;50.074;19.920;2022-08-19T05:33:47;23.10;99.90
19920;DHT22;10122;50.074;19.920;2022-08-19T05:36:13;23.10;99.90
19920;DHT22;10122;50.074;19.920;2022-08-19T05:38:39;23.10;99.90
19920;DHT22;10122;50.074;19.920;2022-08-19T05:41:09;23.10;99.90
19920;DHT22;10122;50.074;19.920;2022-08-19T05:43:36;23.20;99.90
19920;DHT22;10122;50.074;19.920;2022-08-19T05:46:03;23.20;99.90
19920;DHT22;10122;50.074;19.920;2022-08-19T05:48:30;23.20;99.90
19920;DHT22;10122;50.074;19.920;2022-08-19T05:50:56;23.30;99.90
19920;DHT22;10122;50.074;19.920;2022-08-19T05:53:23;23.40;99.90
19920;DHT22;10122;50.074;19.920;2022-08-19T05:55:49;23.40;99.90
19920;DHT22;10122;50.074;19.920;2022-08-19T05:58:15;23.50;99.90
19920;DHT22;10122;50.074;19.920;2022-08-19T06:00:42;23.60;99.90
19920;DHT22;10122;50.074;19.920;2022-08-19T06:03:08;23.60;99.90
19920;DHT22;10122;50.074;19.920;2022-08-19T06:05:34;23.70;99.90
19920;DHT22;10122;50.074;19.920;2022-08-19T06:07:59;23.70;99.90
19920;DHT22;10122;50.074;19.920;2022-08-19T06:10:25;23.80;99.90
19920;DHT22;10122;50.074;19.920;2022-08-19T06:12:52;23.80;99.90
19920;DHT22;10122;50.074;19.920;2022-08-19T06:15:18;23.90;99.90
19920;DHT22;10122;50.074;19.920;2022-08-19T06:17:43;24.00;99.90
19920;DHT22;10122;50.074;19.920;2022-08-19T06:20:14;24.00;99.90
19920;DHT22;10122;50.074;19.920;2022-08-19T06:22:44;24.10;99.90
19920;DHT22;10122;50.074;19.920;2022-08-19T06:25:12;24.40;99.90
19920;DHT22;10122;50.074;19.920;2022-08-19T06:27:39;24.60;99.90
19920;DHT22;10122;50.074;19.920;2022-08-19T06:30:05;25.00;99.90
19920;DHT22;10122;50.074;19.920;2022-08-19T06:32:31;25.30;99.90
19920;DHT22;10122;50.074;19.920;2022-08-19T06:34:57;25.70;99.90
19920;DHT22;10122;50.074;19.920;2022-08-19T06:37:22;26.00;99.90
19920;DHT22;10122;50.074;19.920;2022-08-19T06:39:49;26.30;99.90
19920;DHT22;10122;50.074;19.920;2022-08-19T06:42:16;26.60;99.90
19920;DHT22;10122;50.074;19.920;2022-08-19T06:44:46;26.80;99.90
19920;DHT22;10122;50.074;19.920;2022-08-19T06:47:16;27.10;99.90
19920;DHT22;10122;50.074;19.920;2022-08-19T06:49:42;27.40;99.90
19920;DHT22;10122;50.074;19.920;2022-08-19T06:52:08;27.60;99.90
19920;DHT22;10122;50.074;19.920;2022-08-19T06:54:37;27.70;99.90
19920;DHT22;10122;50.074;19.920;2022-08-19T06:57:02;27.90;99.90
19920;DHT22;10122;50.074;19.920;2022-08-19T06:59:29;28.10;99.90
19920;DHT22;10122;50.074;19.920;2022-08-19T07:01:59;28.30;99.90
19920;DHT22;10122;50.074;19.920;2022-08-19T07:04:29;28.60;99.90
19920;DHT22;10122;50.074;19.920;2022-08-19T07:07:03;28.70;99.90
19920;DHT22;10122;50.074;19.920;2022-08-19T07:09:31;28.80;99.90
19920;DHT22;10122;50.074;19.920;2022-08-19T07:11:57;29.00;99.90
19920;DHT22;10122;50.074;19.920;2022-08-19T07:14:25;29.20;99.90
19920;DHT22;10122;50.074;19.920;2022-08-19T07:16:53;29.30;99.90
19920;DHT22;10122;50.074;19.920;2022-08-19T07:19:21;29.50;99.90
19920;DHT22;10122;50.074;19.920;2022-08-19T07:21:51;29.70;99.90
19920;DHT22;10122;50.074;19.920;2022-08-19T07:24:21;29.80;99.90
19920;DHT22;10122;50.074;19.920;2022-08-19T07:26:49;29.90;99.90
19920;DHT22;10122;50.074;19.920;2022-08-19T07:29:16;30.00;99.90
19920;DHT22;10122;50.074;19.920;2022-08-19T07:31:42;30.20;99.90
19920;DHT22;10122;50.074;19.920;2022-08-19T07:34:09;30.30;99.90
19920;DHT22;10122;50.074;19.920;2022-08-19T07:36:38;30.50;99.90
19920;DHT22;10122;50.074;19.920;2022-08-19T07:39:10;30.60;99.90
19920;DHT22;10122;50.074;19.920;2022-08-19T07:41:37;30.80;99.90
19920;DHT22;10122;50.074;19.920;2022-08-19T07:44:03;30.80;99.90
19920;DHT22;10122;50.074;19.920;2022-08-19T07:46:35;30.80;99.90
19920;DHT22;10122;50.074;19.920;2022-08-19T07:49:03;30.90;99.90
19920;DHT22;10122;50.074;19.920;2022-08-19T07:51:29;31.00;99.90
19920;DHT22;10122;50.074;19.920;2022-08-19T07:53:55;31.20;99.90
19920;DHT22;10122;50.074;19.920;2022-08-19T07:56:21;31.30;99.90
19920;DHT22;10122;50.074;19.920;2022-08-19T07:58:50;31.40;99.90
19920;DHT22;10122;50.074;19.920;2022-08-19T08:01:22;31.60;99.90
19920;DHT22;10122;50.074;19.920;2022-08-19T08:03:51;31.70;99.90
19920;DHT22;10122;50.074;19.920;2022-08-19T08:06:35;31.80;97.30
19920;DHT22;10122;50.074;19.920;2022-08-19T08:09:23;32.00;99.80
19920;DHT22;10122;50.074;19.920;2022-08-19T08:12:11;32.10;99.60
19920;DHT22;10122;50.074;19.920;2022-08-19T08:14:49;32.20;93.50
19920;DHT22;10122;50.074;19.920;2022-08-19T08:17:16;32.30;95.50
19920;DHT22;10122;50.074;19.920;2022-08-19T08:19:44;32.40;96.20
19920;DHT22;10122;50.074;19.920;2022-08-19T08:22:14;32.50;96.30
19920;DHT22;10122;50.074;19.920;2022-08-19T08:25:02;32.60;94.70
19920;DHT22;10122;50.074;19.920;2022-08-19T08:27:28;32.80;94.50
19920;DHT22;10122;50.074;19.920;2022-08-19T08:29:54;33.00;93.20
19920;DHT22;10122;50.074;19.920;2022-08-19T08:32:20;33.10;92.50
19920;DHT22;10122;50.074;19.920;2022-08-19T08:34:45;33.20;92.60
19920;DHT22;10122;50.074;19.920;2022-08-19T08:37:11;33.30;92.40
19920;DHT22;10122;50.074;19.920;2022-08-19T08:39:36;33.50;92.10
19920;DHT22;10122;50.074;19.920;2022-08-19T08:42:07;33.60;91.30
19920;DHT22;10122;50.074;19.920;2022-08-19T08:44:43;33.80;90.40
19920;DHT22;10122;50.074;19.920;2022-08-19T08:47:17;33.80;89.20
19920;DHT22;10122;50.074;19.920;2022-08-19T08:50:03;33.80;89.40
19920;DHT22;10122;50.074;19.920;2022-08-19T08:52:36;33.90;89.60
19920;DHT22;10122;50.074;19.920;2022-08-19T08:55:07;33.90;89.10
19920;DHT22;10122;50.074;19.920;2022-08-19T09:00:26;33.80;84.00
19920;DHT22;10122;50.074;19.920;2022-08-19T09:02:54;33.90;85.30
19920;DHT22;10122;50.074;19.920;2022-08-19T09:05:20;34.10;85.50
19920;DHT22;10122;50.074;19.920;2022-08-19T09:10:46;34.30;83.70
19920;DHT22;10122;50.074;19.920;2022-08-19T09:16:00;34.50;79.10
19920;DHT22;10122;50.074;19.920;2022-08-19T09:18:45;34.60;81.90
19920;DHT22;10122;50.074;19.920;2022-08-19T09:21:13;34.70;79.50
19920;DHT22;10122;50.074;19.920;2022-08-19T09:23:39;34.80;80.60
19920;DHT22;10122;50.074;19.920;2022-08-19T09:26:09;34.80;80.30
19920;DHT22;10122;50.074;19.920;2022-08-19T09:28:39;35.00;80.20
19920;DHT22;10122;50.074;19.920;2022-08-19T09:31:12;35.10;79.30
19920;DHT22;10122;50.074;19.920;2022-08-19T09:33:38;35.10;76.60
19920;DHT22;10122;50.074;19.920;2022-08-19T09:36:08;35.20;78.60
19920;DHT22;10122;50.074;19.920;2022-08-19T09:38:36;35.20;76.50
19920;DHT22;10122;50.074;19.920;2022-08-19T09:41:05;35.30;75.70
19920;DHT22;10122;50.074;19.920;2022-08-19T09:43:32;35.30;73.30
19920;DHT22;10122;50.074;19.920;2022-08-19T09:46:02;35.20;72.40
19920;DHT22;10122;50.074;19.920;2022-08-19T09:48:30;35.10;73.60
19920;DHT22;10122;50.074;19.920;2022-08-19T09:51:02;35.10;75.00
19920;DHT22;10122;50.074;19.920;2022-08-19T09:53:28;35.00;76.30
19920;DHT22;10122;50.074;19.920;2022-08-19T09:55:55;35.00;73.20
19920;DHT22;10122;50.074;19.920;2022-08-19T09:58:21;34.90;69.60
19920;DHT22;10122;50.074;19.920;2022-08-19T10:00:48;34.80;73.60
19920;DHT22;10122;50.074;19.920;2022-08-19T10:03:13;34.80;73.40
19920;DHT22;10122;50.074;19.920;2022-08-19T10:05:39;34.90;72.70
19920;DHT22;10122;50.074;19.920;2022-08-19T10:08:17;35.00;73.50
19920;DHT22;10122;50.074;19.920;2022-08-19T10:10:44;35.00;72.30
19920;DHT22;10122;50.074;19.920;2022-08-19T10:13:10;35.10;71.20
19920;DHT22;10122;50.074;19.920;2022-08-19T10:15:36;35.20;72.30
19920;DHT22;10122;50.074;19.920;2022-08-19T10:18:05;35.20;70.80
19920;DHT22;10122;50.074;19.920;2022-08-19T10:20:31;35.10;70.90
19920;DHT22;10122;50.074;19.920;2022-08-19T10:22:57;35.10;71.90
19920;DHT22;10122;50.074;19.920;2022-08-19T10:25:25;35.20;71.40
19920;DHT22;10122;50.074;19.920;2022-08-19T10:27:52;35.10;68.60
19920;DHT22;10122;50.074;19.920;2022-08-19T10:30:18;35.20;67.10
19920;DHT22;10122;50.074;19.920;2022-08-19T10:32:44;35.10;67.90
19920;DHT22;10122;50.074;19.920;2022-08-19T10:35:11;35.00;66.80
19920;DHT22;10122;50.074;19.920;2022-08-19T10:37:38;35.00;68.80
19920;DHT22;10122;50.074;19.920;2022-08-19T10:40:06;34.90;65.50
19920;DHT22;10122;50.074;19.920;2022-08-19T10:42:34;34.70;68.70
19920;DHT22;10122;50.074;19.920;2022-08-19T10:45:00;34.80;71.10
19920;DHT22;10122;50.074;19.920;2022-08-19T10:47:26;34.80;68.00
19920;DHT22;10122;50.074;19.920;2022-08-19T10:49:52;34.90;70.10
19920;DHT22;10122;50.074;19.920;2022-08-19T10:52:37;34.90;67.40
19920;DHT22;10122;50.074;19.920;2022-08-19T10:55:05;35.00;69.00
19920;DHT22;10122;50.074;19.920;2022-08-19T10:57:49;34.90;65.60
19920;DHT22;10122;50.074;19.920;2022-08-19T11:00:15;35.00;68.90
19920;DHT22;10122;50.074;19.920;2022-08-19T11:02:41;35.00;69.50
19920;DHT22;10122;50.074;19.920;2022-08-19T11:05:08;34.90;68.10
19920;DHT22;10122;50.074;19.920;2022-08-19T11:07:37;34.90;67.70
19920;DHT22;10122;50.074;19.920;2022-08-19T11:10:04;34.90;68.90
19920;DHT22;10122;50.074;19.920;2022-08-19T11:12:29;34.70;68.70
19920;DHT22;10122;50.074;19.920;2022-08-19T11:14:55;34.60;69.90
19920;DHT22;10122;50.074;19.920;2022-08-19T11:17:21;34.40;68.60
19920;DHT22;10122;50.074;19.920;2022-08-19T11:19:49;34.10;70.70
19920;DHT22;10122;50.074;19.920;2022-08-19T11:22:15;34.20;72.00
19920;DHT22;10122;50.074;19.920;2022-08-19T11:24:42;34.20;71.80
19920;DHT22;10122;50.074;19.920;2022-08-19T11:27:09;34.20;71.10
19920;DHT22;10122;50.074;19.920;2022-08-19T11:29:37;34.10;72.60
19920;DHT22;10122;50.074;19.920;2022-08-19T11:32:06;34.20;71.80
19920;DHT22;10122;50.074;19.920;2022-08-19T11:34:33;34.30;71.60
19920;DHT22;10122;50.074;19.920;2022-08-19T11:37:01;34.30;70.60
19920;DHT22;10122;50.074;19.920;2022-08-19T11:39:30;34.30;70.80
19920;DHT22;10122;50.074;19.920;2022-08-19T11:41:58;34.10;69.60
19920;DHT22;10122;50.074;19.920;2022-08-19T11:44:24;34.00;72.20
19920;DHT22;10122;50.074;19.920;2022-08-19T11:46:50;34.10;72.00
19920;DHT22;10122;50.074;19.920;2022-08-19T11:49:18;34.20;70.80
19920;DHT22;10122;50.074;19.920;2022-08-19T11:51:44;34.30;71.10
19920;DHT22;10122;50.074;19.920;2022-08-19T11:54:12;34.40;71.10
19920;DHT22;10122;50.074;19.920;2022-08-19T11:56:39;34.60;70.20
19920;DHT22;10122;50.074;19.920;2022-08-19T11:59:05;34.70;70.00
19920;DHT22;10122;50.074;19.920;2022-08-19T12:01:31;34.60;70.50
19920;DHT22;10122;50.074;19.920;2022-08-19T12:03:57;34.60;70.00
19920;DHT22;10122;50.074;19.920;2022-08-19T12:06:26;34.50;70.50
19920;DHT22;10122;50.074;19.920;2022-08-19T12:08:57;34.60;70.50
19920;DHT22;10122;50.074;19.920;2022-08-19T12:11:24;34.40;71.40
19920;DHT22;10122;50.074;19.920;2022-08-19T12:13:50;34.30;72.30
19920;DHT22;10122;50.074;19.920;2022-08-19T12:16:19;34.30;72.20
19920;DHT22;10122;50.074;19.920;2022-08-19T12:18:46;34.30;72.30
19920;DHT22;10122;50.074;19.920;2022-08-19T12:21:17;34.30;70.00
19920;DHT22;10122;50.074;19.920;2022-08-19T12:23:43;34.30;72.20
19920;DHT22;10122;50.074;19.920;2022-08-19T12:26:11;34.10;69.80
19920;DHT22;10122;50.074;19.920;2022-08-19T12:28:37;34.10;71.20
19920;DHT22;10122;50.074;19.920;2022-08-19T12:31:04;34.10;69.00
19920;DHT22;10122;50.074;19.920;2022-08-19T12:33:30;34.10;69.50
19920;DHT22;10122;50.074;19.920;2022-08-19T12:36:01;34.10;68.80
19920;DHT22;10122;50.074;19.920;2022-08-19T12:38:28;34.10;67.60
19920;DHT22;10122;50.074;19.920;2022-08-19T12:40:54;34.20;70.10
19920;DHT22;10122;50.074;19.920;2022-08-19T12:43:19;34.30;71.30
19920;DHT22;10122;50.074;19.920;2022-08-19T12:45:46;34.40;70.20
19920;DHT22;10122;50.074;19.920;2022-08-19T12:48:12;34.30;71.10
19920;DHT22;10122;50.074;19.920;2022-08-19T12:50:42;34.20;70.90
19920;DHT22;10122;50.074;19.920;2022-08-19T12:53:08;34.30;70.30
19920;DHT22;10122;50.074;19.920;2022-08-19T12:55:33;34.30;70.90
19920;DHT22;10122;50.074;19.920;2022-08-19T12:57:59;34.30;70.40
19920;DHT22;10122;50.074;19.920;2022-08-19T13:00:27;34.30;69.20
19920;DHT22;10122;50.074;19.920;2022-08-19T13:02:53;34.30;69.20
19920;DHT22;10122;50.074;19.920;2022-08-19T13:05:22;34.40;70.80
19920;DHT22;10122;50.074;19.920;2022-08-19T13:07:50;34.50;74.20
19920;DHT22;10122;50.074;19.920;2022-08-19T13:10:18;34.40;72.30
19920;DHT22;10122;50.074;19.920;2022-08-19T13:12:46;34.50;71.60
19920;DHT22;10122;50.074;19.920;2022-08-19T13:15:13;34.50;68.10
19920;DHT22;10122;50.074;19.920;2022-08-19T13:17:39;34.50;65.20
19920;DHT22;10122;50.074;19.920;2022-08-19T13:20:09;34.30;63.90
19920;DHT22;10122;50.074;19.920;2022-08-19T13:22:35;34.20;67.50
19920;DHT22;10122;50.074;19.920;2022-08-19T13:25:02;34.00;66.80
19920;DHT22;10122;50.074;19.920;2022-08-19T13:27:29;34.10;65.80
19920;DHT22;10122;50.074;19.920;2022-08-19T13:29:54;34.00;66.20
19920;DHT22;10122;50.074;19.920;2022-08-19T13:32:38;34.20;67.30
19920;DHT22;10122;50.074;19.920;2022-08-19T13:35:22;34.20;64.60
19920;DHT22;10122;50.074;19.920;2022-08-19T13:37:48;34.30;64.90
19920;DHT22;10122;50.074;19.920;2022-08-19T13:40:24;34.30;65.30
19920;DHT22;10122;50.074;19.920;2022-08-19T13:42:53;34.30;62.30
19920;DHT22;10122;50.074;19.920;2022-08-19T13:45:21;34.30;61.70
19920;DHT22;10122;50.074;19.920;2022-08-19T13:47:53;34.20;61.70
19920;DHT22;10122;50.074;19.920;2022-08-19T13:50:23;34.20;61.30
19920;DHT22;10122;50.074;19.920;2022-08-19T13:52:51;34.30;62.30
19920;DHT22;10122;50.074;19.920;2022-08-19T13:55:17;34.30;62.10
19920;DHT22;10122;50.074;19.920;2022-08-19T13:57:43;34.30;59.30
19920;DHT22;10122;50.074;19.920;2022-08-19T14:00:14;34.40;62.10
19920;DHT22;10122;50.074;19.920;2022-08-19T14:02:41;34.30;61.20
19920;DHT22;10122;50.074;19.920;2022-08-19T14:05:09;34.40;62.70
19920;DHT22;10122;50.074;19.920;2022-08-19T14:07:35;34.40;62.70
19920;DHT22;10122;50.074;19.920;2022-08-19T14:10:06;34.30;61.90
19920;DHT22;10122;50.074;19.920;2022-08-19T14:12:32;34.30;61.40
19920;DHT22;10122;50.074;19.920;2022-08-19T14:14:59;34.30;61.50
19920;DHT22;10122;50.074;19.920;2022-08-19T14:17:25;34.30;60.30
19920;DHT22;10122;50.074;19.920;2022-08-19T14:20:01;34.30;62.10
19920;DHT22;10122;50.074;19.920;2022-08-19T14:22:29;34.30;61.90
19920;DHT22;10122;50.074;19.920;2022-08-19T14:24:57;34.30;59.60
19920;DHT22;10122;50.074;19.920;2022-08-19T14:27:22;34.30;61.70
19920;DHT22;10122;50.074;19.920;2022-08-19T14:29:49;34.30;61.80
19920;DHT22;10122;50.074;19.920;2022-08-19T14:32:15;34.20;62.50
19920;DHT22;10122;50.074;19.920;2022-08-19T14:34:40;34.20;63.10
19920;DHT22;10122;50.074;19.920;2022-08-19T14:37:06;34.10;62.70
19920;DHT22;10122;50.074;19.920;2022-08-19T14:39:33;34.20;63.00
19920;DHT22;10122;50.074;19.920;2022-08-19T14:41:59;34.10;63.80
19920;DHT22;10122;50.074;19.920;2022-08-19T14:44:25;34.20;64.00
19920;DHT22;10122;50.074;19.920;2022-08-19T14:46:50;34.20;64.30
19920;DHT22;10122;50.074;19.920;2022-08-19T14:49:17;34.10;64.80
19920;DHT22;10122;50.074;19.920;2022-08-19T14:51:43;34.10;63.30
19920;DHT22;10122;50.074;19.920;2022-08-19T14:54:10;34.10;62.40
19920;DHT22;10122;50.074;19.920;2022-08-19T14:56:37;34.00;64.00
19920;DHT22;10122;50.074;19.920;2022-08-19T14:59:05;34.00;63.00
19920;DHT22;10122;50.074;19.920;2022-08-19T15:01:31;34.00;63.40
19920;DHT22;10122;50.074;19.920;2022-08-19T15:03:57;33.90;63.70
19920;DHT22;10122;50.074;19.920;2022-08-19T15:06:24;33.90;65.30
19920;DHT22;10122;50.074;19.920;2022-08-19T15:08:50;33.90;64.40
19920;DHT22;10122;50.074;19.920;2022-08-19T15:11:19;33.90;62.30
19920;DHT22;10122;50.074;19.920;2022-08-19T15:13:46;33.80;63.30
19920;DHT22;10122;50.074;19.920;2022-08-19T15:16:13;33.80;64.00
19920;DHT22;10122;50.074;19.920;2022-08-19T15:18:42;33.80;61.90
19920;DHT22;10122;50.074;19.920;2022-08-19T15:21:12;33.70;63.30
19920;DHT22;10122;50.074;19.920;2022-08-19T15:23:38;33.70;62.10
19920;DHT22;10122;50.074;19.920;2022-08-19T15:26:05;33.60;62.80
19920;DHT22;10122;50.074;19.920;2022-08-19T15:28:32;33.60;61.80
19920;DHT22;10122;50.074;19.920;2022-08-19T15:30:58;33.60;62.00
19920;DHT22;10122;50.074;19.920;2022-08-19T15:33:24;33.60;63.10